Time,TemperatureF,DewpointF,PressureIn,WindDirection,WindDirectionDegrees,WindSpeedMPH,WindSpeedGustMPH,Humidity,HourlyPrecipIn,Conditions,Clouds,dailyrainin,SolarRadiationWatts/m^2,SoftwareType,DateUTC
2013-12-27 00:01:00,51.9,49.0,30.25,NE,39,0.0,1.0,90,0.00,,,0.00,0,weatherlink.com 1.10,2013-12-27 05:01:00,
2013-12-27 00:17:00,51.5,49.0,30.25,ENE,65,2.0,4.0,90,0.00,,,0.00,0,weatherlink.com 1.10,2013-12-27 05:17:00,
2013-12-27 00:31:00,51.4,49.0,30.25,NNE,30,2.0,5.0,90,0.00,,,0.00,0,weatherlink.com 1.10,2013-12-27 05:31:00,
2013-12-27 00:47:00,51.4,49.0,30.25,ENE,58,0.0,4.0,90,0.00,,,0.00,0,weatherlink.com 1.10,2013-12-27 05:47:00,
2013-12-27 01:02:00,51.4,49.0,30.25,NE,44,0.0,5.0,90,0.00,,,0.00,0,weatherlink.com 1.10,2013-12-27 06:02:00,
2013-12-27 01:17:00,51.4,49.0,30.24,NE,38,0.0,5.0,90,0.00,,,0.00,0,weatherlink.com 1.10,2013-12-27 06:17:00,
2013-12-27 01:32:00,51.4,49.0,30.23,ENE,57,3.0,6.0,90,0.00,,,0.00,0,weatherlink.com 1.10,2013-12-27 06:32:00,
2013-12-27 01:47:00,51.4,49.0,30.23,NNE,28,0.0,4.0,91,0.00,,,0.00,0,weatherlink.com 1.10,2013-12-27 06:47:00,
2013-12-27 02:02:00,51.2,49.0,30.23,NE,44,1.0,6.0,92,0.00,,,0.00,0,weatherlink.com 1.10,2013-12-27 07:02:00,
2013-12-27 02:18:00,51.3,49.0,30.23,NNE,19,1.0,4.0,93,0.00,,,0.00,0,weatherlink.com 1.10,2013-12-27 07:18:00,
2013-12-27 02:32:00,51.2,49.0,30.24,NNW,340,1.0,5.0,92,0.00,,,0.00,0,weatherlink.com 1.10,2013-12-27 07:32:00,
2013-12-27 02:47:00,51.1,49.0,30.23,NNE,21,4.0,5.0,92,0.00,,,0.00,0,weatherlink.com 1.10,2013-12-27 07:47:00,
2013-12-27 03:04:00,51.0,49.0,30.23,North,5,2.0,7.0,93,0.00,,,0.00,0,weatherlink.com 1.10,2013-12-27 08:04:00,
2013-12-27 03:18:00,50.8,49.0,30.23,North,360,2.0,6.0,94,0.00,,,0.00,0,weatherlink.com 1.10,2013-12-27 08:18:00,
2013-12-27 03:34:00,50.8,49.0,30.23,NNW,343,0.0,4.0,94,0.00,,,0.00,0,weatherlink.com 1.10,2013-12-27 08:34:00,
2013-12-27 03:48:00,50.7,49.0,30.23,NNW,329,5.0,7.0,94,0.00,,,0.00,0,weatherlink.com 1.10,2013-12-27 08:48:00,
2013-12-27 04:04:00,50.4,49.0,30.23,NNW,334,4.0,9.0,94,0.00,,,0.00,0,weatherlink.com 1.10,2013-12-27 09:04:00,
2013-12-27 04:18:00,50.5,49.0,30.23,North,360,4.0,10.0,94,0.00,,,0.00,0,weatherlink.com 1.10,2013-12-27 09:18:00,
2013-12-27 04:34:00,50.4,49.0,30.23,North,5,3.0,11.0,95,0.00,,,0.00,0,weatherlink.com 1.10,2013-12-27 09:34:00,
2013-12-27 04:48:00,50.4,49.0,30.23,North,355,2.0,11.0,95,0.00,,,0.00,0,weatherlink.com 1.10,2013-12-27 09:48:00,
2013-12-27 05:04:00,50.3,49.0,30.24,NNE,24,4.0,8.0,95,0.00,,,0.00,0,weatherlink.com 1.10,2013-12-27 10:04:00,
2013-12-27 05:18:00,50.3,49.0,30.24,NNE,15,1.0,6.0,95,0.00,,,0.00,0,weatherlink.com 1.10,2013-12-27 10:18:00,
2013-12-27 05:34:00,50.5,49.0,30.24,North,5,3.0,8.0,95,0.00,,,0.00,0,weatherlink.com 1.10,2013-12-27 10:34:00,
2013-12-27 05:48:00,50.7,49.0,30.25,NE,40,1.0,6.0,95,0.00,,,0.00,0,weatherlink.com 1.10,2013-12-27 10:48:00,
2013-12-27 06:04:00,50.9,50.0,30.25,North,360,1.0,7.0,95,0.00,,,0.00,0,weatherlink.com 1.10,2013-12-27 11:04:00,
2013-12-27 06:18:00,51.1,50.0,30.25,North,355,3.0,10.0,95,0.00,,,0.00,0,weatherlink.com 1.10,2013-12-27 11:18:00,
2013-12-27 06:34:00,51.2,50.0,30.25,NNE,30,5.0,7.0,95,0.00,,,0.00,0,weatherlink.com 1.10,2013-12-27 11:34:00,
2013-12-27 06:48:00,51.4,50.0,30.25,NNE,15,0.0,8.0,95,0.00,,,0.00,0,weatherlink.com 1.10,2013-12-27 11:48:00,
2013-12-27 07:04:00,51.5,50.0,30.26,NE,51,3.0,7.0,94,0.00,,,0.00,0,weatherlink.com 1.10,2013-12-27 12:04:00,
2013-12-27 07:19:00,51.6,50.0,30.27,North,351,1.0,6.0,94,0.00,,,0.00,0,weatherlink.com 1.10,2013-12-27 12:19:00,
2013-12-27 07:35:00,51.8,50.0,30.27,NNW,345,5.0,7.0,94,0.00,,,0.00,9,weatherlink.com 1.10,2013-12-27 12:35:00,
2013-12-27 07:49:00,51.9,50.0,30.29,NE,38,3.0,7.0,94,0.00,,,0.00,16,weatherlink.com 1.10,2013-12-27 12:49:00,
2013-12-27 08:04:00,52.0,50.0,30.29,NNE,29,3.0,6.0,94,0.00,,,0.00,39,weatherlink.com 1.10,2013-12-27 13:04:00,
2013-12-27 08:19:00,52.2,51.0,30.28,NNE,19,5.0,8.0,94,0.00,,,0.00,79,weatherlink.com 1.10,2013-12-27 13:19:00,
2013-12-27 08:34:00,52.6,51.0,30.29,NE,42,5.0,7.0,95,0.00,,,0.00,70,weatherlink.com 1.10,2013-12-27 13:34:00,
2013-12-27 08:49:00,53.0,52.0,30.29,North,5,3.0,9.0,95,0.00,,,0.00,86,weatherlink.com 1.10,2013-12-27 13:49:00,
2013-12-27 09:04:00,53.3,52.0,30.30,North,355,8.0,9.0,94,0.00,,,0.00,76,weatherlink.com 1.10,2013-12-27 14:04:00,
2013-12-27 09:19:00,53.7,52.0,30.30,North,11,5.0,7.0,94,0.00,,,0.00,90,weatherlink.com 1.10,2013-12-27 14:19:00,
2013-12-27 09:34:00,54.3,53.0,30.30,NNW,327,2.0,8.0,94,0.00,,,0.00,90,weatherlink.com 1.10,2013-12-27 14:34:00,
2013-12-27 09:50:00,54.7,53.0,30.31,NE,56,3.0,8.0,93,0.00,,,0.00,107,weatherlink.com 1.10,2013-12-27 14:50:00,
2013-12-27 10:20:00,55.9,54.0,30.32,NNE,19,3.0,8.0,93,0.00,,,0.00,128,weatherlink.com 1.10,2013-12-27 15:20:00,
2013-12-27 10:35:00,56.5,54.0,30.31,NNE,16,4.0,8.0,92,0.00,,,0.00,90,weatherlink.com 1.10,2013-12-27 15:35:00,
2013-12-27 10:50:00,56.7,54.0,30.32,North,355,4.0,7.0,91,0.00,,,0.00,65,weatherlink.com 1.10,2013-12-27 15:50:00,
2013-12-27 11:05:00,56.7,55.0,30.31,NE,45,2.0,5.0,93,0.00,,,0.00,91,weatherlink.com 1.10,2013-12-27 16:05:00,
2013-12-27 11:20:00,56.8,55.0,30.31,NNE,18,0.0,5.0,94,0.00,,,0.00,98,weatherlink.com 1.10,2013-12-27 16:20:00,
2013-12-27 11:35:00,57.2,56.0,30.30,NNW,348,2.0,6.0,94,0.00,,,0.00,93,weatherlink.com 1.10,2013-12-27 16:35:00,
2013-12-27 11:50:00,57.4,56.0,30.30,North,11,0.0,7.0,94,0.00,,,0.00,83,weatherlink.com 1.10,2013-12-27 16:50:00,
2013-12-27 12:05:00,57.8,56.0,30.29,NE,53,3.0,4.0,94,0.00,,,0.00,100,weatherlink.com 1.10,2013-12-27 17:05:00,
2013-12-27 12:20:00,58.3,57.0,30.28,NNE,28,1.0,4.0,94,0.01,,,0.01,104,weatherlink.com 1.10,2013-12-27 17:20:00,
2013-12-27 12:35:00,58.4,56.0,30.28,North,360,1.0,5.0,93,0.01,,,0.01,104,weatherlink.com 1.10,2013-12-27 17:35:00,
2013-12-27 12:50:00,58.7,57.0,30.27,North,5,3.0,5.0,94,0.01,,,0.01,100,weatherlink.com 1.10,2013-12-27 17:50:00,
2013-12-27 13:05:00,58.8,57.0,30.26,NNE,19,3.0,5.0,94,0.02,,,0.02,121,weatherlink.com 1.10,2013-12-27 18:05:00,
2013-12-27 13:21:00,58.8,57.0,30.26,North,360,4.0,5.0,94,0.01,,,0.02,67,weatherlink.com 1.10,2013-12-27 18:21:00,
2013-12-27 13:50:00,59.4,58.0,30.24,NNE,23,3.0,6.0,95,0.02,,,0.03,125,weatherlink.com 1.10,2013-12-27 18:50:00,
2013-12-27 14:06:00,60.0,58.0,30.24,NE,56,3.0,8.0,94,0.01,,,0.03,134,weatherlink.com 1.10,2013-12-27 19:06:00,
2013-12-27 14:21:00,60.5,59.0,30.24,NNE,14,4.0,9.0,93,0.01,,,0.03,127,weatherlink.com 1.10,2013-12-27 19:21:00,
2013-12-27 14:36:00,61.0,59.0,30.23,NE,44,6.0,8.0,93,0.00,,,0.03,185,weatherlink.com 1.10,2013-12-27 19:36:00,
2013-12-27 14:51:00,61.4,59.0,30.22,North,355,3.0,12.0,91,0.00,,,0.03,155,weatherlink.com 1.10,2013-12-27 19:51:00,
2013-12-27 15:06:00,61.6,59.0,30.23,ENE,58,0.0,10.0,91,0.00,,,0.03,137,weatherlink.com 1.10,2013-12-27 20:06:00,
2013-12-27 15:21:00,61.6,59.0,30.23,NNE,28,3.0,8.0,90,0.00,,,0.03,97,weatherlink.com 1.10,2013-12-27 20:21:00,
2013-12-27 15:36:00,61.2,58.0,30.23,NNE,30,2.0,7.0,90,0.00,,,0.03,63,weatherlink.com 1.10,2013-12-27 20:36:00,
2013-12-27 15:51:00,60.9,58.0,30.23,NE,42,2.0,9.0,89,0.00,,,0.03,65,weatherlink.com 1.10,2013-12-27 20:51:00,
2013-12-27 16:06:00,60.6,58.0,30.24,NNE,27,4.0,10.0,90,0.00,,,0.03,42,weatherlink.com 1.10,2013-12-27 21:06:00,
2013-12-27 16:21:00,60.2,57.0,30.25,NNW,333,3.0,12.0,89,0.00,,,0.03,39,weatherlink.com 1.10,2013-12-27 21:21:00,
2013-12-27 16:36:00,59.8,57.0,30.25,NE,35,4.0,12.0,89,0.00,,,0.03,25,weatherlink.com 1.10,2013-12-27 21:36:00,
2013-12-27 16:51:00,59.4,57.0,30.25,East,82,1.0,12.0,90,0.00,,,0.03,14,weatherlink.com 1.10,2013-12-27 21:51:00,
2013-12-27 17:06:00,59.0,56.0,30.26,NNE,19,4.0,9.0,90,0.00,,,0.03,11,weatherlink.com 1.10,2013-12-27 22:06:00,
2013-12-27 17:22:00,58.5,56.0,30.26,NE,34,6.0,10.0,90,0.00,,,0.03,5,weatherlink.com 1.10,2013-12-27 22:22:00,
2013-12-27 17:36:00,58.1,55.0,30.27,NNW,333,6.0,10.0,90,0.00,,,0.03,0,weatherlink.com 1.10,2013-12-27 22:36:00,
2013-12-27 17:51:00,57.6,55.0,30.27,NE,53,3.0,14.0,90,0.00,,,0.03,0,weatherlink.com 1.10,2013-12-27 22:51:00,
2013-12-27 18:07:00,57.5,55.0,30.28,NNE,23,9.0,9.0,90,0.00,,,0.03,0,weatherlink.com 1.10,2013-12-27 23:07:00,
2013-12-27 18:22:00,57.4,55.0,30.28,NE,40,8.0,11.0,90,0.00,,,0.03,0,weatherlink.com 1.10,2013-12-27 23:22:00,
2013-12-27 18:37:00,57.3,55.0,30.28,North,5,3.0,13.0,90,0.00,,,0.03,0,weatherlink.com 1.10,2013-12-27 23:37:00,
2013-12-27 18:52:00,57.1,54.0,30.28,North,5,10.0,11.0,90,0.00,,,0.03,0,weatherlink.com 1.10,2013-12-27 23:52:00,
2013-12-27 19:07:00,57.0,54.0,30.29,NNE,18,6.0,8.0,90,0.00,,,0.03,0,weatherlink.com 1.10,2013-12-28 00:07:00,
2013-12-27 19:22:00,56.9,54.0,30.29,NE,42,4.0,11.0,91,0.00,,,0.03,0,weatherlink.com 1.10,2013-12-28 00:22:00,
2013-12-27 19:37:00,56.8,54.0,30.28,NE,50,2.0,9.0,91,0.00,,,0.03,0,weatherlink.com 1.10,2013-12-28 00:37:00,
2013-12-27 19:52:00,56.7,54.0,30.29,NE,43,2.0,9.0,91,0.00,,,0.03,0,weatherlink.com 1.10,2013-12-28 00:52:00,
2013-12-27 20:07:00,56.7,54.0,30.29,NNE,32,2.0,9.0,91,0.00,,,0.03,0,weatherlink.com 1.10,2013-12-28 01:07:00,
2013-12-27 20:22:00,56.7,54.0,30.29,NE,45,5.0,11.0,91,0.00,,,0.03,0,weatherlink.com 1.10,2013-12-28 01:22:00,
2013-12-27 20:37:00,56.6,54.0,30.29,North,355,4.0,12.0,91,0.00,,,0.03,0,weatherlink.com 1.10,2013-12-28 01:37:00,
2013-12-27 20:52:00,56.6,54.0,30.29,North,355,1.0,8.0,91,0.00,,,0.03,0,weatherlink.com 1.10,2013-12-28 01:52:00,
2013-12-27 21:07:00,56.5,54.0,30.29,NE,55,2.0,10.0,91,0.00,,,0.03,0,weatherlink.com 1.10,2013-12-28 02:07:00,
2013-12-27 21:22:00,56.4,54.0,30.29,NNE,24,4.0,7.0,92,0.00,,,0.03,0,weatherlink.com 1.10,2013-12-28 02:22:00,
2013-12-27 21:38:00,56.5,54.0,30.30,NNE,21,5.0,8.0,92,0.00,,,0.03,0,weatherlink.com 1.10,2013-12-28 02:38:00,
2013-12-27 21:52:00,56.6,54.0,30.30,NNE,19,4.0,7.0,92,0.00,,,0.03,0,weatherlink.com 1.10,2013-12-28 02:52:00,
2013-12-27 22:07:00,56.5,54.0,30.30,NNE,33,4.0,8.0,91,0.00,,,0.03,0,weatherlink.com 1.10,2013-12-28 03:07:00,
2013-12-27 22:24:00,56.6,54.0,30.29,NE,46,4.0,7.0,91,0.00,,,0.03,0,weatherlink.com 1.10,2013-12-28 03:24:00,
2013-12-27 22:38:00,56.7,54.0,30.30,North,360,6.0,10.0,91,0.00,,,0.03,0,weatherlink.com 1.10,2013-12-28 03:38:00,
2013-12-27 22:52:00,56.8,54.0,30.30,NNE,24,4.0,9.0,90,0.00,,,0.03,0,weatherlink.com 1.10,2013-12-28 03:52:00,
2013-12-27 23:08:00,56.9,54.0,30.30,North,11,6.0,10.0,90,0.00,,,0.03,0,weatherlink.com 1.10,2013-12-28 04:08:00,
2013-12-27 23:24:00,56.8,54.0,30.29,NNE,17,6.0,10.0,89,0.00,,,0.03,0,weatherlink.com 1.10,2013-12-28 04:24:00,
2013-12-27 23:38:00,56.9,54.0,30.29,NE,40,3.0,10.0,89,0.00,,,0.03,0,weatherlink.com 1.10,2013-12-28 04:38:00,
2013-12-27 23:54:00,57.0,54.0,30.28,NNE,22,2.0,7.0,89,0.00,,,0.03,0,weatherlink.com 1.10,2013-12-28 04:54:00,